LIRQ Airport Information

Runway Information
Runway 05 Length 5425 ft width 98 ft
Elevation 123 ft Threshold 492 ft Heading 48
Runway 23 Length 5425 ft Width 98 ft
Elevation 132 ft Threshold 2287 ft Heading 228
Airport Frequencies
Type APP Name APP Frequency 126.075 MHZ
Type ATIS Name ATIS Frequency 129.35 MHZ
Type TWR Name FIRENZE TW Frequency 118.3 MHZ
Airport Navaids
Type VOR-DME Name Peretola Frequency 112500 KHZ
Airport Weather Information & NOTAM
ADDS - METARS form results

(2240 UTC 28 January 2022)
Data provider http://aviationweather.gov/metar/data/
 
METAR text: LIRQ 282220Z AUTO 22006KT 9999 BKN230/// 04/M00 Q1029
Conditions at: LIRQ (FIRENZE/PERETOLA, IT) observed 2220 UTC 28 January 2022
Temperature: 4.0°C (39°F)
Dewpoint: 0.0°C (32°F) [RH = 75%]
Pressure (altimeter): 30.38 inches Hg (1029.0 mb)
Winds: from the SW (220 degrees) at 7 MPH (6 knots; 3.1 m/s)
Visibility: 6 or more miles (10+ km)
Ceiling: 23000 feet AGL
Clouds: broken clouds at 23000 feet AGL
Weather: no significant weather observed at this time

METAR text: LIRQ 282150Z 30003KT CAVOK 04/M03 Q1028
Conditions at: LIRQ (FIRENZE/PERETOLA, IT) observed 2150 UTC 28 January 2022
Temperature: 4.0°C (39°F)
Dewpoint: -3.0°C (27°F) [RH = 60%]
Pressure (altimeter): 30.35 inches Hg (1028.0 mb)
Winds: from the WNW (300 degrees) at 3 MPH (3 knots; 1.5 m/s)
Visibility: 6 or more miles (10+ km)
Ceiling: ceiling and visibility are OK
Clouds: unknown
Weather: no significant weather observed at this time

Forecast for: LIRQ (FIRENZE/PERETOLA, IT)
Text: TAF LIRQ 281700Z 2818/2918 06006KT 8000 SCT040
Forecast period: 1800 UTC 28 January 2022 to 1800 UTC 29 January 2022
Forecast type: FROM: standard forecast or significant change
Winds: from the ENE (60 degrees) at 7 MPH (6 knots; 3.1 m/s)
Visibility: 5 miles (8 km)
Ceiling: at least 12,000 feet AGL
Clouds: scattered clouds at 4000 feet AGL
Weather: no significant weather forecast for this period